sensor_id;sensor_type;location;lat;lon;timestamp;pressure;altitude;pressure_sealevel;temperature;humidity
69306;BME280;56427;51.580;4.656;2022-08-19T00:00:18;101375.13;;;16.77;100.00
69306;BME280;56427;51.580;4.656;2022-08-19T00:02:43;101373.00;;;16.81;100.00
69306;BME280;56427;51.580;4.656;2022-08-19T00:05:11;101369.88;;;16.77;100.00
69306;BME280;56427;51.580;4.656;2022-08-19T00:07:37;101377.88;;;16.75;100.00
69306;BME280;56427;51.580;4.656;2022-08-19T00:10:04;101369.56;;;16.80;100.00
69306;BME280;56427;51.580;4.656;2022-08-19T00:12:33;101373.69;;;16.83;100.00
69306;BME280;56427;51.580;4.656;2022-08-19T00:14:58;101373.41;;;16.86;100.00
69306;BME280;56427;51.580;4.656;2022-08-19T00:17:23;101365.56;;;16.86;100.00
69306;BME280;56427;51.580;4.656;2022-08-19T00:19:49;101380.28;;;16.87;100.00
69306;BME280;56427;51.580;4.656;2022-08-19T00:22:14;101371.16;;;16.91;100.00
69306;BME280;56427;51.580;4.656;2022-08-19T00:24:41;101373.91;;;16.89;100.00
69306;BME280;56427;51.580;4.656;2022-08-19T00:27:08;101363.94;;;16.93;100.00
69306;BME280;56427;51.580;4.656;2022-08-19T00:29:34;101368.53;;;16.91;100.00
69306;BME280;56427;51.580;4.656;2022-08-19T00:31:59;101365.22;;;16.89;100.00
69306;BME280;56427;51.580;4.656;2022-08-19T00:34:25;101364.94;;;17.00;100.00
69306;BME280;56427;51.580;4.656;2022-08-19T00:36:53;101366.78;;;17.08;100.00
69306;BME280;56427;51.580;4.656;2022-08-19T00:39:19;101366.63;;;17.09;100.00
69306;BME280;56427;51.580;4.656;2022-08-19T00:41:45;101379.84;;;16.73;100.00
69306;BME280;56427;51.580;4.656;2022-08-19T00:44:20;101377.91;;;16.31;100.00
69306;BME280;56427;51.580;4.656;2022-08-19T00:46:48;101377.78;;;15.97;100.00
69306;BME280;56427;51.580;4.656;2022-08-19T00:49:20;101378.84;;;15.86;100.00
69306;BME280;56427;51.580;4.656;2022-08-19T00:51:51;101378.91;;;15.76;100.00
69306;BME280;56427;51.580;4.656;2022-08-19T00:54:17;101386.78;;;15.76;100.00
69306;BME280;56427;51.580;4.656;2022-08-19T00:56:43;101380.91;;;15.64;100.00
69306;BME280;56427;51.580;4.656;2022-08-19T00:59:10;101384.25;;;15.85;100.00
69306;BME280;56427;51.580;4.656;2022-08-19T01:01:37;101378.78;;;15.96;100.00
69306;BME280;56427;51.580;4.656;2022-08-19T01:04:03;101381.75;;;15.83;100.00
69306;BME280;56427;51.580;4.656;2022-08-19T01:06:30;101382.13;;;15.88;100.00
69306;BME280;56427;51.580;4.656;2022-08-19T01:08:58;101372.00;;;15.75;100.00
69306;BME280;56427;51.580;4.656;2022-08-19T01:11:23;101372.47;;;15.89;100.00
69306;BME280;56427;51.580;4.656;2022-08-19T01:13:50;101365.25;;;16.00;100.00
69306;BME280;56427;51.580;4.656;2022-08-19T01:16:19;101374.88;;;15.82;100.00
69306;BME280;56427;51.580;4.656;2022-08-19T01:18:46;101376.25;;;16.04;100.00
69306;BME280;56427;51.580;4.656;2022-08-19T01:21:39;101380.03;;;15.92;100.00
69306;BME280;56427;51.580;4.656;2022-08-19T01:24:05;101389.09;;;15.97;100.00
69306;BME280;56427;51.580;4.656;2022-08-19T01:26:31;101392.69;;;16.14;100.00
69306;BME280;56427;51.580;4.656;2022-08-19T01:28:58;101391.78;;;16.24;100.00
69306;BME280;56427;51.580;4.656;2022-08-19T01:31:27;101391.84;;;16.32;100.00
69306;BME280;56427;51.580;4.656;2022-08-19T01:33:56;101393.75;;;16.48;100.00
69306;BME280;56427;51.580;4.656;2022-08-19T01:36:37;101394.13;;;16.27;100.00
69306;BME280;56427;51.580;4.656;2022-08-19T01:39:06;101382.66;;;16.10;100.00
69306;BME280;56427;51.580;4.656;2022-08-19T01:41:33;101390.59;;;16.00;100.00
69306;BME280;56427;51.580;4.656;2022-08-19T01:44:02;101390.16;;;16.05;100.00
69306;BME280;56427;51.580;4.656;2022-08-19T01:46:30;101394.19;;;16.17;100.00
69306;BME280;56427;51.580;4.656;2022-08-19T01:48:55;101392.97;;;16.29;100.00
69306;BME280;56427;51.580;4.656;2022-08-19T01:51:21;101390.84;;;16.51;100.00
69306;BME280;56427;51.580;4.656;2022-08-19T01:53:48;101382.13;;;16.68;100.00
69306;BME280;56427;51.580;4.656;2022-08-19T01:56:14;101389.38;;;16.48;100.00
69306;BME280;56427;51.580;4.656;2022-08-19T01:58:44;101385.19;;;16.37;100.00
69306;BME280;56427;51.580;4.656;2022-08-19T02:01:13;101378.53;;;16.43;100.00
69306;BME280;56427;51.580;4.656;2022-08-19T02:03:39;101374.91;;;16.44;100.00
69306;BME280;56427;51.580;4.656;2022-08-19T02:06:05;101383.66;;;16.53;100.00
69306;BME280;56427;51.580;4.656;2022-08-19T02:08:32;101383.97;;;16.50;100.00
69306;BME280;56427;51.580;4.656;2022-08-19T02:10:58;101386.03;;;16.46;100.00
69306;BME280;56427;51.580;4.656;2022-08-19T02:13:24;101384.63;;;16.52;100.00
69306;BME280;56427;51.580;4.656;2022-08-19T02:15:50;101385.03;;;16.65;100.00
69306;BME280;56427;51.580;4.656;2022-08-19T02:18:16;101384.94;;;16.75;100.00
69306;BME280;56427;51.580;4.656;2022-08-19T02:20:43;101383.72;;;16.87;100.00
69306;BME280;56427;51.580;4.656;2022-08-19T02:23:10;101382.91;;;16.87;100.00
69306;BME280;56427;51.580;4.656;2022-08-19T02:25:36;101386.19;;;16.89;100.00
69306;BME280;56427;51.580;4.656;2022-08-19T02:28:01;101379.00;;;16.91;100.00
69306;BME280;56427;51.580;4.656;2022-08-19T02:30:27;101377.34;;;16.90;100.00
69306;BME280;56427;51.580;4.656;2022-08-19T02:32:52;101373.13;;;16.97;100.00
69306;BME280;56427;51.580;4.656;2022-08-19T02:35:18;101380.00;;;16.98;100.00
69306;BME280;56427;51.580;4.656;2022-08-19T02:37:44;101377.69;;;16.95;100.00
69306;BME280;56427;51.580;4.656;2022-08-19T02:40:30;101384.59;;;16.96;100.00
69306;BME280;56427;51.580;4.656;2022-08-19T02:42:57;101381.97;;;16.96;100.00
69306;BME280;56427;51.580;4.656;2022-08-19T02:45:22;101374.13;;;16.96;100.00
69306;BME280;56427;51.580;4.656;2022-08-19T02:47:48;101382.91;;;16.87;100.00
69306;BME280;56427;51.580;4.656;2022-08-19T02:50:13;101377.50;;;16.88;100.00
69306;BME280;56427;51.580;4.656;2022-08-19T02:52:39;101377.13;;;16.83;100.00
69306;BME280;56427;51.580;4.656;2022-08-19T02:55:05;101379.63;;;16.85;100.00
69306;BME280;56427;51.580;4.656;2022-08-19T02:57:31;101377.13;;;16.83;100.00
69306;BME280;56427;51.580;4.656;2022-08-19T02:59:57;101367.19;;;16.87;100.00
69306;BME280;56427;51.580;4.656;2022-08-19T03:02:22;101361.41;;;16.83;100.00
69306;BME280;56427;51.580;4.656;2022-08-19T03:04:47;101370.38;;;16.81;100.00
69306;BME280;56427;51.580;4.656;2022-08-19T03:07:15;101364.16;;;16.82;100.00
69306;BME280;56427;51.580;4.656;2022-08-19T03:09:40;101363.47;;;16.71;100.00
69306;BME280;56427;51.580;4.656;2022-08-19T03:12:09;101358.53;;;16.68;100.00
69306;BME280;56427;51.580;4.656;2022-08-19T03:14:36;101353.09;;;16.62;100.00
69306;BME280;56427;51.580;4.656;2022-08-19T03:17:01;101360.94;;;16.62;100.00
69306;BME280;56427;51.580;4.656;2022-08-19T03:19:28;101351.44;;;16.61;100.00
69306;BME280;56427;51.580;4.656;2022-08-19T03:21:54;101345.84;;;16.55;100.00
69306;BME280;56427;51.580;4.656;2022-08-19T03:24:20;101350.41;;;16.53;100.00
69306;BME280;56427;51.580;4.656;2022-08-19T03:26:48;101348.59;;;16.54;100.00
69306;BME280;56427;51.580;4.656;2022-08-19T03:29:15;101355.00;;;16.51;100.00
69306;BME280;56427;51.580;4.656;2022-08-19T03:31:42;101353.66;;;16.47;100.00
69306;BME280;56427;51.580;4.656;2022-08-19T03:34:09;101354.78;;;16.45;100.00
69306;BME280;56427;51.580;4.656;2022-08-19T03:36:37;101358.53;;;16.42;100.00
69306;BME280;56427;51.580;4.656;2022-08-19T03:39:04;101354.88;;;16.35;100.00
69306;BME280;56427;51.580;4.656;2022-08-19T03:41:36;101355.19;;;16.32;100.00
69306;BME280;56427;51.580;4.656;2022-08-19T03:44:03;101363.84;;;16.32;100.00
69306;BME280;56427;51.580;4.656;2022-08-19T03:46:32;101364.81;;;16.31;100.00
69306;BME280;56427;51.580;4.656;2022-08-19T03:49:00;101364.00;;;16.31;100.00
69306;BME280;56427;51.580;4.656;2022-08-19T03:51:31;101368.38;;;16.22;100.00
69306;BME280;56427;51.580;4.656;2022-08-19T03:53:59;101367.53;;;16.22;100.00
69306;BME280;56427;51.580;4.656;2022-08-19T03:56:25;101373.91;;;16.19;100.00
69306;BME280;56427;51.580;4.656;2022-08-19T03:58:52;101367.72;;;16.20;100.00
69306;BME280;56427;51.580;4.656;2022-08-19T04:01:21;101360.81;;;16.19;100.00
69306;BME280;56427;51.580;4.656;2022-08-19T04:03:47;101368.16;;;16.15;100.00
69306;BME280;56427;51.580;4.656;2022-08-19T04:06:18;101372.03;;;16.11;100.00
69306;BME280;56427;51.580;4.656;2022-08-19T04:08:45;101362.22;;;16.13;100.00
69306;BME280;56427;51.580;4.656;2022-08-19T04:11:13;101365.69;;;16.14;100.00
69306;BME280;56427;51.580;4.656;2022-08-19T04:13:39;101368.75;;;16.09;100.00
69306;BME280;56427;51.580;4.656;2022-08-19T04:16:06;101366.94;;;16.10;100.00
69306;BME280;56427;51.580;4.656;2022-08-19T04:18:33;101364.13;;;16.03;100.00
69306;BME280;56427;51.580;4.656;2022-08-19T04:20:58;101372.81;;;16.04;100.00
69306;BME280;56427;51.580;4.656;2022-08-19T04:23:24;101375.44;;;16.04;100.00
69306;BME280;56427;51.580;4.656;2022-08-19T04:25:49;101369.88;;;16.07;100.00
69306;BME280;56427;51.580;4.656;2022-08-19T04:28:15;101375.88;;;15.99;100.00
69306;BME280;56427;51.580;4.656;2022-08-19T04:30:44;101374.88;;;16.00;100.00
69306;BME280;56427;51.580;4.656;2022-08-19T04:33:11;101375.72;;;16.00;100.00
69306;BME280;56427;51.580;4.656;2022-08-19T04:35:42;101374.50;;;15.95;100.00
69306;BME280;56427;51.580;4.656;2022-08-19T04:38:08;101376.97;;;15.96;100.00
69306;BME280;56427;51.580;4.656;2022-08-19T04:40:42;101376.97;;;15.96;100.00
69306;BME280;56427;51.580;4.656;2022-08-19T04:43:26;101379.09;;;15.93;100.00
69306;BME280;56427;51.580;4.656;2022-08-19T04:45:52;101379.22;;;15.91;100.00
69306;BME280;56427;51.580;4.656;2022-08-19T04:48:17;101385.41;;;15.90;100.00
69306;BME280;56427;51.580;4.656;2022-08-19T04:50:51;101392.75;;;15.87;100.00
69306;BME280;56427;51.580;4.656;2022-08-19T04:53:22;101385.81;;;15.95;100.00
69306;BME280;56427;51.580;4.656;2022-08-19T04:55:47;101386.13;;;15.92;100.00
69306;BME280;56427;51.580;4.656;2022-08-19T04:58:12;101383.22;;;15.95;100.00
69306;BME280;56427;51.580;4.656;2022-08-19T05:00:39;101385.50;;;15.98;100.00
69306;BME280;56427;51.580;4.656;2022-08-19T05:03:05;101376.25;;;16.04;100.00
69306;BME280;56427;51.580;4.656;2022-08-19T05:05:30;101380.88;;;16.10;100.00
69306;BME280;56427;51.580;4.656;2022-08-19T05:07:56;101387.75;;;16.11;100.00
69306;BME280;56427;51.580;4.656;2022-08-19T05:10:21;101388.25;;;16.15;100.00
69306;BME280;56427;51.580;4.656;2022-08-19T05:12:47;101391.50;;;16.09;100.00
69306;BME280;56427;51.580;4.656;2022-08-19T05:15:12;101388.25;;;16.15;100.00
69306;BME280;56427;51.580;4.656;2022-08-19T05:17:37;101386.84;;;16.21;100.00
69306;BME280;56427;51.580;4.656;2022-08-19T05:20:04;101378.03;;;16.48;100.00
69306;BME280;56427;51.580;4.656;2022-08-19T05:22:49;101384.88;;;16.67;100.00
69306;BME280;56427;51.580;4.656;2022-08-19T05:25:17;101382.16;;;16.77;100.00
69306;BME280;56427;51.580;4.656;2022-08-19T05:27:44;101381.81;;;16.98;100.00
69306;BME280;56427;51.580;4.656;2022-08-19T05:30:10;101383.50;;;17.07;100.00
69306;BME280;56427;51.580;4.656;2022-08-19T05:32:38;101388.88;;;17.05;100.00
69306;BME280;56427;51.580;4.656;2022-08-19T05:35:04;101391.44;;;17.23;100.00
69306;BME280;56427;51.580;4.656;2022-08-19T05:37:31;101391.09;;;17.18;100.00
69306;BME280;56427;51.580;4.656;2022-08-19T05:39:56;101393.19;;;17.15;100.00
69306;BME280;56427;51.580;4.656;2022-08-19T05:42:22;101386.22;;;17.32;100.00
69306;BME280;56427;51.580;4.656;2022-08-19T05:44:49;101399.41;;;17.14;100.00
69306;BME280;56427;51.580;4.656;2022-08-19T05:47:16;101393.09;;;16.90;100.00
69306;BME280;56427;51.580;4.656;2022-08-19T05:49:42;101393.94;;;16.99;100.00
69306;BME280;56427;51.580;4.656;2022-08-19T05:52:11;101398.69;;;16.95;100.00
69306;BME280;56427;51.580;4.656;2022-08-19T05:54:38;101394.59;;;16.92;100.00
69306;BME280;56427;51.580;4.656;2022-08-19T05:57:07;101393.22;;;16.88;100.00
69306;BME280;56427;51.580;4.656;2022-08-19T05:59:32;101392.03;;;16.83;100.00
69306;BME280;56427;51.580;4.656;2022-08-19T06:02:00;101391.16;;;17.00;100.00
69306;BME280;56427;51.580;4.656;2022-08-19T06:04:25;101391.88;;;17.10;100.00
69306;BME280;56427;51.580;4.656;2022-08-19T06:06:52;101391.03;;;17.10;100.00
69306;BME280;56427;51.580;4.656;2022-08-19T06:09:19;101391.19;;;17.08;100.00
69306;BME280;56427;51.580;4.656;2022-08-19T06:11:47;101395.78;;;17.06;100.00
69306;BME280;56427;51.580;4.656;2022-08-19T06:14:18;101389.56;;;17.07;100.00
69306;BME280;56427;51.580;4.656;2022-08-19T06:16:44;101392.44;;;17.22;100.00
69306;BME280;56427;51.580;4.656;2022-08-19T06:19:16;101385.72;;;17.28;100.00
69306;BME280;56427;51.580;4.656;2022-08-19T06:21:44;101395.25;;;17.29;100.00
69306;BME280;56427;51.580;4.656;2022-08-19T06:24:11;101387.56;;;17.36;100.00
69306;BME280;56427;51.580;4.656;2022-08-19T06:26:39;101387.75;;;17.42;100.00
69306;BME280;56427;51.580;4.656;2022-08-19T06:29:06;101393.97;;;17.50;100.00
69306;BME280;56427;51.580;4.656;2022-08-19T06:31:33;101386.78;;;17.52;100.00
69306;BME280;56427;51.580;4.656;2022-08-19T06:34:00;101387.94;;;17.57;100.00
69306;BME280;56427;51.580;4.656;2022-08-19T06:36:31;101385.34;;;17.65;100.00
69306;BME280;56427;51.580;4.656;2022-08-19T06:39:03;101393.72;;;17.69;100.00
69306;BME280;56427;51.580;4.656;2022-08-19T06:41:30;101390.44;;;17.67;100.00
69306;BME280;56427;51.580;4.656;2022-08-19T06:43:57;101400.50;;;17.88;100.00
69306;BME280;56427;51.580;4.656;2022-08-19T06:46:22;101396.84;;;17.81;100.00
69306;BME280;56427;51.580;4.656;2022-08-19T06:48:48;101398.00;;;17.87;100.00
69306;BME280;56427;51.580;4.656;2022-08-19T06:51:16;101399.34;;;17.91;100.00
69306;BME280;56427;51.580;4.656;2022-08-19T06:53:53;101400.22;;;18.16;100.00
69306;BME280;56427;51.580;4.656;2022-08-19T06:56:22;101394.75;;;17.84;100.00
69306;BME280;56427;51.580;4.656;2022-08-19T06:58:49;101397.22;;;18.11;100.00
69306;BME280;56427;51.580;4.656;2022-08-19T07:01:17;101398.41;;;18.25;100.00
69306;BME280;56427;51.580;4.656;2022-08-19T07:03:43;101407.25;;;18.40;100.00
69306;BME280;56427;51.580;4.656;2022-08-19T07:06:11;101401.50;;;18.53;100.00
69306;BME280;56427;51.580;4.656;2022-08-19T07:08:38;101395.56;;;18.75;100.00
69306;BME280;56427;51.580;4.656;2022-08-19T07:11:08;101385.81;;;19.01;100.00
69306;BME280;56427;51.580;4.656;2022-08-19T07:13:35;101389.78;;;18.97;100.00
69306;BME280;56427;51.580;4.656;2022-08-19T07:16:06;101400.91;;;19.07;100.00
69306;BME280;56427;51.580;4.656;2022-08-19T07:18:32;101403.91;;;18.79;100.00
69306;BME280;56427;51.580;4.656;2022-08-19T07:21:12;101408.53;;;18.93;100.00
69306;BME280;56427;51.580;4.656;2022-08-19T07:23:38;101407.34;;;18.96;100.00
69306;BME280;56427;51.580;4.656;2022-08-19T07:26:09;101409.50;;;19.40;100.00
69306;BME280;56427;51.580;4.656;2022-08-19T07:28:34;101407.56;;;19.65;100.00
69306;BME280;56427;51.580;4.656;2022-08-19T07:31:06;101407.13;;;19.54;100.00
69306;BME280;56427;51.580;4.656;2022-08-19T07:33:32;101410.19;;;19.65;100.00
69306;BME280;56427;51.580;4.656;2022-08-19T07:35:58;101408.38;;;19.66;100.00
69306;BME280;56427;51.580;4.656;2022-08-19T07:38:24;101414.50;;;19.90;100.00
69306;BME280;56427;51.580;4.656;2022-08-19T07:40:50;101405.59;;;20.14;100.00
69306;BME280;56427;51.580;4.656;2022-08-19T07:43:17;101421.84;;;20.40;100.00
69306;BME280;56427;51.580;4.656;2022-08-19T07:45:47;101423.84;;;20.38;100.00
69306;BME280;56427;51.580;4.656;2022-08-19T07:48:13;101424.44;;;20.26;100.00
69306;BME280;56427;51.580;4.656;2022-08-19T07:50:39;101419.97;;;20.87;100.00
69306;BME280;56427;51.580;4.656;2022-08-19T07:53:04;101429.63;;;21.98;100.00
69306;BME280;56427;51.580;4.656;2022-08-19T07:55:30;101435.56;;;22.50;95.58
69306;BME280;56427;51.580;4.656;2022-08-19T07:57:55;101429.75;;;22.61;93.85
69306;BME280;56427;51.580;4.656;2022-08-19T08:00:21;101430.06;;;22.79;92.42
69306;BME280;56427;51.580;4.656;2022-08-19T08:02:47;101435.94;;;22.47;93.71
69306;BME280;56427;51.580;4.656;2022-08-19T08:05:12;101440.03;;;21.63;97.85
69306;BME280;56427;51.580;4.656;2022-08-19T08:07:56;101436.44;;;21.92;99.04
69306;BME280;56427;51.580;4.656;2022-08-19T08:10:40;101446.19;;;22.56;95.11
69306;BME280;56427;51.580;4.656;2022-08-19T08:13:06;101446.28;;;22.20;95.90
69306;BME280;56427;51.580;4.656;2022-08-19T08:15:31;101445.88;;;21.58;97.84
69306;BME280;56427;51.580;4.656;2022-08-19T08:17:57;101451.50;;;21.40;100.00
69306;BME280;56427;51.580;4.656;2022-08-19T08:20:23;101453.91;;;21.05;100.00
69306;BME280;56427;51.580;4.656;2022-08-19T08:22:48;101461.50;;;20.70;100.00
69306;BME280;56427;51.580;4.656;2022-08-19T08:25:33;101459.72;;;20.86;100.00
69306;BME280;56427;51.580;4.656;2022-08-19T08:28:00;101463.78;;;20.73;100.00
69306;BME280;56427;51.580;4.656;2022-08-19T08:30:27;101463.25;;;20.93;100.00
69306;BME280;56427;51.580;4.656;2022-08-19T08:32:53;101458.44;;;20.96;100.00
69306;BME280;56427;51.580;4.656;2022-08-19T08:35:22;101458.78;;;21.08;100.00
69306;BME280;56427;51.580;4.656;2022-08-19T08:37:50;101465.53;;;20.96;100.00
69306;BME280;56427;51.580;4.656;2022-08-19T08:42:53;101475.06;;;20.82;100.00
69306;BME280;56427;51.580;4.656;2022-08-19T08:45:24;101464.91;;;21.09;100.00
69306;BME280;56427;51.580;4.656;2022-08-19T08:47:52;101467.44;;;21.32;100.00
69306;BME280;56427;51.580;4.656;2022-08-19T08:50:27;101466.81;;;21.60;100.00
69306;BME280;56427;51.580;4.656;2022-08-19T08:52:57;101467.63;;;21.30;100.00
69306;BME280;56427;51.580;4.656;2022-08-19T08:55:27;101463.06;;;21.24;100.00
69306;BME280;56427;51.580;4.656;2022-08-19T08:58:06;101461.53;;;21.45;100.00
69306;BME280;56427;51.580;4.656;2022-08-19T09:00:41;101467.00;;;21.58;100.00
69306;BME280;56427;51.580;4.656;2022-08-19T09:03:16;101473.50;;;21.77;100.00
69306;BME280;56427;51.580;4.656;2022-08-19T09:09:04;101472.69;;;21.77;100.00
69306;BME280;56427;51.580;4.656;2022-08-19T09:11:47;101477.06;;;21.40;100.00
69306;BME280;56427;51.580;4.656;2022-08-19T09:14:37;101476.91;;;21.56;100.00
69306;BME280;56427;51.580;4.656;2022-08-19T09:17:08;101482.81;;;21.73;100.00
69306;BME280;56427;51.580;4.656;2022-08-19T09:19:35;101488.13;;;21.13;100.00
69306;BME280;56427;51.580;4.656;2022-08-19T09:22:01;101479.09;;;21.38;100.00
69306;BME280;56427;51.580;4.656;2022-08-19T09:24:26;101482.94;;;21.50;100.00
69306;BME280;56427;51.580;4.656;2022-08-19T09:26:51;101474.91;;;21.58;100.00
69306;BME280;56427;51.580;4.656;2022-08-19T09:29:17;101479.47;;;22.22;99.01
69306;BME280;56427;51.580;4.656;2022-08-19T09:31:42;101481.41;;;22.85;92.83
69306;BME280;56427;51.580;4.656;2022-08-19T09:34:08;101473.88;;;23.59;89.78
69306;BME280;56427;51.580;4.656;2022-08-19T09:36:33;101473.00;;;23.51;89.27
69306;BME280;56427;51.580;4.656;2022-08-19T09:39:03;101482.16;;;23.97;88.06
69306;BME280;56427;51.580;4.656;2022-08-19T09:41:28;101480.88;;;22.68;92.20
69306;BME280;56427;51.580;4.656;2022-08-19T09:43:55;101480.63;;;22.91;93.63
69306;BME280;56427;51.580;4.656;2022-08-19T09:46:24;101474.47;;;22.84;92.55
69306;BME280;56427;51.580;4.656;2022-08-19T09:48:50;101472.53;;;23.89;88.61
69306;BME280;56427;51.580;4.656;2022-08-19T09:51:21;101476.69;;;24.39;85.01
69306;BME280;56427;51.580;4.656;2022-08-19T09:53:48;101476.69;;;24.46;84.60
69306;BME280;56427;51.580;4.656;2022-08-19T09:56:19;101475.47;;;24.15;85.33
69306;BME280;56427;51.580;4.656;2022-08-19T09:58:45;101484.41;;;24.07;85.49
69306;BME280;56427;51.580;4.656;2022-08-19T10:01:20;101483.63;;;24.13;86.87
69306;BME280;56427;51.580;4.656;2022-08-19T10:03:52;101476.44;;;25.07;83.22
69306;BME280;56427;51.580;4.656;2022-08-19T10:06:19;101476.69;;;24.19;84.35
69306;BME280;56427;51.580;4.656;2022-08-19T10:08:45;101479.91;;;23.94;87.08
69306;BME280;56427;51.580;4.656;2022-08-19T10:11:10;101486.47;;;24.18;84.35
69306;BME280;56427;51.580;4.656;2022-08-19T10:13:36;101479.13;;;24.14;84.12
69306;BME280;56427;51.580;4.656;2022-08-19T10:16:06;101482.56;;;24.07;86.22
69306;BME280;56427;51.580;4.656;2022-08-19T10:18:32;101484.41;;;24.00;85.42
69306;BME280;56427;51.580;4.656;2022-08-19T10:21:05;101481.16;;;24.12;84.15
69306;BME280;56427;51.580;4.656;2022-08-19T10:23:33;101475.28;;;24.43;83.46
69306;BME280;56427;51.580;4.656;2022-08-19T10:26:00;101470.59;;;24.58;82.72
69306;BME280;56427;51.580;4.656;2022-08-19T10:28:26;101458.94;;;24.53;80.29
69306;BME280;56427;51.580;4.656;2022-08-19T10:30:51;101468.13;;;24.30;83.47
69306;BME280;56427;51.580;4.656;2022-08-19T10:33:17;101466.88;;;24.13;84.07
69306;BME280;56427;51.580;4.656;2022-08-19T10:35:42;101461.34;;;23.87;84.96
69306;BME280;56427;51.580;4.656;2022-08-19T10:38:09;101457.88;;;23.94;85.34
69306;BME280;56427;51.580;4.656;2022-08-19T10:40:34;101460.81;;;24.66;82.92
69306;BME280;56427;51.580;4.656;2022-08-19T10:42:59;101457.72;;;24.62;82.00
69306;BME280;56427;51.580;4.656;2022-08-19T10:45:25;101458.56;;;25.34;79.03
69306;BME280;56427;51.580;4.656;2022-08-19T10:47:52;101457.94;;;24.74;82.05
69306;BME280;56427;51.580;4.656;2022-08-19T10:50:18;101461.16;;;24.89;81.45
69306;BME280;56427;51.580;4.656;2022-08-19T10:53:06;101453.97;;;25.03;80.13
69306;BME280;56427;51.580;4.656;2022-08-19T10:55:34;101454.44;;;24.06;83.98
69306;BME280;56427;51.580;4.656;2022-08-19T10:58:19;101465.50;;;23.62;87.26
69306;BME280;56427;51.580;4.656;2022-08-19T11:00:55;101462.69;;;22.87;91.61
69306;BME280;56427;51.580;4.656;2022-08-19T11:03:21;101465.53;;;22.57;95.16
69306;BME280;56427;51.580;4.656;2022-08-19T11:05:57;101464.91;;;23.11;93.99
69306;BME280;56427;51.580;4.656;2022-08-19T11:08:23;101467.22;;;22.93;95.62
69306;BME280;56427;51.580;4.656;2022-08-19T11:10:51;101473.59;;;23.05;95.67
69306;BME280;56427;51.580;4.656;2022-08-19T11:13:18;101475.81;;;23.37;96.19
69306;BME280;56427;51.580;4.656;2022-08-19T11:15:44;101479.56;;;23.14;95.98
69306;BME280;56427;51.580;4.656;2022-08-19T11:18:11;101476.44;;;23.04;97.76
69306;BME280;56427;51.580;4.656;2022-08-19T11:20:36;101472.69;;;23.20;100.00
69306;BME280;56427;51.580;4.656;2022-08-19T11:23:02;101486.78;;;22.98;100.00
69306;BME280;56427;51.580;4.656;2022-08-19T11:25:27;101485.41;;;23.03;100.00
69306;BME280;56427;51.580;4.656;2022-08-19T11:27:52;101483.50;;;22.62;100.00
69306;BME280;56427;51.580;4.656;2022-08-19T11:30:18;101485.19;;;22.76;100.00
69306;BME280;56427;51.580;4.656;2022-08-19T11:32:43;101482.13;;;22.72;100.00
69306;BME280;56427;51.580;4.656;2022-08-19T11:35:09;101479.81;;;22.19;100.00
69306;BME280;56427;51.580;4.656;2022-08-19T11:37:36;101478.19;;;22.18;100.00
69306;BME280;56427;51.580;4.656;2022-08-19T11:40:04;101471.72;;;22.21;100.00
69306;BME280;56427;51.580;4.656;2022-08-19T11:42:30;101480.44;;;22.21;100.00
69306;BME280;56427;51.580;4.656;2022-08-19T11:45:14;101483.56;;;21.88;100.00
69306;BME280;56427;51.580;4.656;2022-08-19T11:47:39;101483.84;;;21.94;100.00
69306;BME280;56427;51.580;4.656;2022-08-19T11:50:05;101486.72;;;22.35;100.00
69306;BME280;56427;51.580;4.656;2022-08-19T11:52:31;101481.66;;;22.19;100.00
69306;BME280;56427;51.580;4.656;2022-08-19T11:54:56;101487.47;;;22.51;100.00
69306;BME280;56427;51.580;4.656;2022-08-19T11:57:22;101488.97;;;22.60;100.00
69306;BME280;56427;51.580;4.656;2022-08-19T11:59:49;101487.03;;;22.47;100.00
69306;BME280;56427;51.580;4.656;2022-08-19T12:02:15;101486.88;;;22.55;100.00
69306;BME280;56427;51.580;4.656;2022-08-19T12:04:40;101487.28;;;22.81;100.00
69306;BME280;56427;51.580;4.656;2022-08-19T12:07:05;101491.53;;;22.75;100.00
69306;BME280;56427;51.580;4.656;2022-08-19T12:09:31;101489.19;;;22.93;100.00
69306;BME280;56427;51.580;4.656;2022-08-19T12:11:57;101499.91;;;23.07;100.00
69306;BME280;56427;51.580;4.656;2022-08-19T12:14:22;101492.00;;;22.57;100.00
69306;BME280;56427;51.580;4.656;2022-08-19T12:16:48;101484.03;;;22.29;100.00
69306;BME280;56427;51.580;4.656;2022-08-19T12:19:15;101485.56;;;22.45;100.00
69306;BME280;56427;51.580;4.656;2022-08-19T12:21:40;101486.66;;;22.29;100.00
69306;BME280;56427;51.580;4.656;2022-08-19T12:24:06;101485.44;;;22.10;100.00
69306;BME280;56427;51.580;4.656;2022-08-19T12:26:33;101487.03;;;22.47;100.00
69306;BME280;56427;51.580;4.656;2022-08-19T12:28:58;101480.63;;;22.63;100.00
69306;BME280;56427;51.580;4.656;2022-08-19T12:31:25;101481.88;;;22.67;100.00
69306;BME280;56427;51.580;4.656;2022-08-19T12:33:50;101477.00;;;22.99;100.00
69306;BME280;56427;51.580;4.656;2022-08-19T12:36:17;101467.56;;;23.11;100.00
69306;BME280;56427;51.580;4.656;2022-08-19T12:38:43;101462.06;;;23.13;100.00
69306;BME280;56427;51.580;4.656;2022-08-19T12:41:12;101458.34;;;23.07;100.00
69306;BME280;56427;51.580;4.656;2022-08-19T12:43:38;101466.25;;;23.36;100.00
69306;BME280;56427;51.580;4.656;2022-08-19T12:46:04;101462.38;;;23.03;100.00
69306;BME280;56427;51.580;4.656;2022-08-19T12:48:30;101464.16;;;23.24;100.00
69306;BME280;56427;51.580;4.656;2022-08-19T12:50:56;101458.41;;;23.21;100.00